sensor_id;sensor_type;location;lat;lon;timestamp;pressure;altitude;pressure_sealevel;temperature;humidity
8398;BME280;4236;54.504;9.588;2022-09-27T00:00:57;99144.97;;;11.49;100.00
8398;BME280;4236;54.504;9.588;2022-09-27T00:03:25;99138.00;;;11.48;100.00
8398;BME280;4236;54.504;9.588;2022-09-27T00:06:02;99132.69;;;11.48;100.00
8398;BME280;4236;54.504;9.588;2022-09-27T00:08:31;99138.81;;;11.49;100.00
8398;BME280;4236;54.504;9.588;2022-09-27T00:10:59;99140.44;;;11.50;100.00
8398;BME280;4236;54.504;9.588;2022-09-27T00:13:28;99143.09;;;11.50;100.00
8398;BME280;4236;54.504;9.588;2022-09-27T00:15:57;99135.34;;;11.48;100.00
8398;BME280;4236;54.504;9.588;2022-09-27T00:18:25;99133.22;;;11.50;100.00
8398;BME280;4236;54.504;9.588;2022-09-27T00:20:53;99144.50;;;11.52;100.00
8398;BME280;4236;54.504;9.588;2022-09-27T00:23:22;99139.38;;;11.51;100.00
8398;BME280;4236;54.504;9.588;2022-09-27T00:25:56;99133.00;;;11.52;100.00
8398;BME280;4236;54.504;9.588;2022-09-27T00:28:24;99141.56;;;11.54;100.00
8398;BME280;4236;54.504;9.588;2022-09-27T00:30:52;99136.50;;;11.52;100.00
8398;BME280;4236;54.504;9.588;2022-09-27T00:33:20;99131.38;;;11.51;100.00
8398;BME280;4236;54.504;9.588;2022-09-27T00:35:48;99124.75;;;11.53;100.00
8398;BME280;4236;54.504;9.588;2022-09-27T00:38:16;99130.66;;;11.55;100.00
8398;BME280;4236;54.504;9.588;2022-09-27T00:40:45;99126.59;;;11.53;100.00
8398;BME280;4236;54.504;9.588;2022-09-27T00:43:17;99128.00;;;11.55;100.00
8398;BME280;4236;54.504;9.588;2022-09-27T00:45:47;99131.22;;;11.57;100.00
8398;BME280;4236;54.504;9.588;2022-09-27T00:48:19;99121.59;;;11.56;100.00
8398;BME280;4236;54.504;9.588;2022-09-27T00:50:50;99128.31;;;11.59;100.00
8398;BME280;4236;54.504;9.588;2022-09-27T00:53:23;99120.06;;;11.60;100.00
8398;BME280;4236;54.504;9.588;2022-09-27T00:55:56;99120.06;;;11.60;100.00
8398;BME280;4236;54.504;9.588;2022-09-27T00:58:29;99124.38;;;11.61;100.00
8398;BME280;4236;54.504;9.588;2022-09-27T01:00:59;99124.91;;;11.63;100.00
8398;BME280;4236;54.504;9.588;2022-09-27T01:03:35;99123.56;;;11.61;100.00
8398;BME280;4236;54.504;9.588;2022-09-27T01:06:07;99120.63;;;11.62;100.00
8398;BME280;4236;54.504;9.588;2022-09-27T01:08:35;99111.78;;;11.62;100.00
8398;BME280;4236;54.504;9.588;2022-09-27T01:11:12;99112.59;;;11.62;100.00
8398;BME280;4236;54.504;9.588;2022-09-27T01:13:46;99119.25;;;11.60;100.00
8398;BME280;4236;54.504;9.588;2022-09-27T01:16:26;99113.09;;;11.59;100.00
8398;BME280;4236;54.504;9.588;2022-09-27T01:19:04;99117.41;;;11.60;100.00
8398;BME280;4236;54.504;9.588;2022-09-27T01:21:42;99111.00;;;11.61;100.00
8398;BME280;4236;54.504;9.588;2022-09-27T01:24:28;99107.28;;;11.62;100.00
8398;BME280;4236;54.504;9.588;2022-09-27T01:27:21;99106.47;;;11.62;100.00
8398;BME280;4236;54.504;9.588;2022-09-27T01:30:21;99101.13;;;11.62;100.00
8398;BME280;4236;54.504;9.588;2022-09-27T01:32:55;99103.00;;;11.61;100.00
8398;BME280;4236;54.504;9.588;2022-09-27T01:35:32;99103.00;;;11.61;100.00
8398;BME280;4236;54.504;9.588;2022-09-27T01:38:10;99108.09;;;11.63;100.00
8398;BME280;4236;54.504;9.588;2022-09-27T01:40:47;99102.53;;;11.64;100.00
8398;BME280;4236;54.504;9.588;2022-09-27T01:43:21;99099.84;;;11.64;100.00
8398;BME280;4236;54.504;9.588;2022-09-27T01:45:55;99103.56;;;11.63;100.00
8398;BME280;4236;54.504;9.588;2022-09-27T01:48:31;99098.78;;;11.65;100.00
8398;BME280;4236;54.504;9.588;2022-09-27T01:51:04;99097.97;;;11.65;100.00
8398;BME280;4236;54.504;9.588;2022-09-27T01:53:36;99101.72;;;11.64;100.00
8398;BME280;4236;54.504;9.588;2022-09-27T01:56:09;99097.19;;;11.64;100.00
8398;BME280;4236;54.504;9.588;2022-09-27T01:58:42;99086.50;;;11.64;100.00
8398;BME280;4236;54.504;9.588;2022-09-27T02:01:14;99085.69;;;11.64;100.00
8398;BME280;4236;54.504;9.588;2022-09-27T02:03:46;99089.41;;;11.63;100.00
8398;BME280;4236;54.504;9.588;2022-09-27T02:06:18;99083.00;;;11.64;100.00
8398;BME280;4236;54.504;9.588;2022-09-27T02:08:51;99085.44;;;11.65;100.00
8398;BME280;4236;54.504;9.588;2022-09-27T02:11:21;99077.69;;;11.64;100.00
8398;BME280;4236;54.504;9.588;2022-09-27T02:13:52;99075.81;;;11.64;100.00
8398;BME280;4236;54.504;9.588;2022-09-27T02:16:28;99074.19;;;11.63;100.00
8398;BME280;4236;54.504;9.588;2022-09-27T02:19:06;99075.00;;;11.64;100.00
8398;BME280;4236;54.504;9.588;2022-09-27T02:21:40;99082.19;;;11.63;100.00
8398;BME280;4236;54.504;9.588;2022-09-27T02:24:12;99076.88;;;11.63;100.00
8398;BME280;4236;54.504;9.588;2022-09-27T02:26:43;99072.00;;;11.60;100.00
8398;BME280;4236;54.504;9.588;2022-09-27T02:29:14;99079.47;;;11.58;100.00
8398;BME280;4236;54.504;9.588;2022-09-27T02:31:46;99074.91;;;11.59;100.00
8398;BME280;4236;54.504;9.588;2022-09-27T02:34:17;99075.97;;;11.58;100.00
8398;BME280;4236;54.504;9.588;2022-09-27T02:36:46;99066.34;;;11.57;100.00
8398;BME280;4236;54.504;9.588;2022-09-27T02:39:16;99067.16;;;11.57;100.00
8398;BME280;4236;54.504;9.588;2022-09-27T02:41:44;99075.97;;;11.58;100.00
8398;BME280;4236;54.504;9.588;2022-09-27T02:44:13;99074.59;;;11.55;100.00
8398;BME280;4236;54.504;9.588;2022-09-27T02:47:06;99067.97;;;11.58;100.00
8398;BME280;4236;54.504;9.588;2022-09-27T02:49:45;99073.31;;;11.58;100.00
8398;BME280;4236;54.504;9.588;2022-09-27T02:52:24;99063.44;;;11.58;100.00
8398;BME280;4236;54.504;9.588;2022-09-27T02:55:03;99064.47;;;11.57;100.00
8398;BME280;4236;54.504;9.588;2022-09-27T02:57:40;99058.09;;;11.58;100.00
8398;BME280;4236;54.504;9.588;2022-09-27T03:00:16;99058.09;;;11.58;100.00
8398;BME280;4236;54.504;9.588;2022-09-27T03:02:52;99057.84;;;11.60;100.00
8398;BME280;4236;54.504;9.588;2022-09-27T03:05:26;99052.75;;;11.58;100.00
8398;BME280;4236;54.504;9.588;2022-09-27T03:07:55;99057.28;;;11.58;100.00
8398;BME280;4236;54.504;9.588;2022-09-27T03:10:25;99049.50;;;11.56;100.00
8398;BME280;4236;54.504;9.588;2022-09-27T03:12:53;99053.81;;;11.57;100.00
8398;BME280;4236;54.504;9.588;2022-09-27T03:15:22;99052.19;;;11.56;100.00
8398;BME280;4236;54.504;9.588;2022-09-27T03:17:51;99053.25;;;11.55;100.00
8398;BME280;4236;54.504;9.588;2022-09-27T03:20:18;99054.53;;;11.53;100.00
8398;BME280;4236;54.504;9.588;2022-09-27T03:22:46;99052.44;;;11.55;100.00
8398;BME280;4236;54.504;9.588;2022-09-27T03:25:14;99054.84;;;11.56;100.00
8398;BME280;4236;54.504;9.588;2022-09-27T03:27:42;99047.91;;;11.55;100.00
8398;BME280;4236;54.504;9.588;2022-09-27T03:30:12;99050.81;;;11.54;100.00
8398;BME280;4236;54.504;9.588;2022-09-27T03:32:41;99046.50;;;11.53;100.00
8398;BME280;4236;54.504;9.588;2022-09-27T03:35:11;99038.28;;;11.54;100.00
8398;BME280;4236;54.504;9.588;2022-09-27T03:37:39;99030.25;;;11.54;100.00
8398;BME280;4236;54.504;9.588;2022-09-27T03:40:07;99035.84;;;11.53;100.00
8398;BME280;4236;54.504;9.588;2022-09-27T03:42:35;99032.13;;;11.54;100.00
8398;BME280;4236;54.504;9.588;2022-09-27T03:45:04;99032.13;;;11.54;100.00
8398;BME280;4236;54.504;9.588;2022-09-27T03:47:32;99035.59;;;11.54;100.00
8398;BME280;4236;54.504;9.588;2022-09-27T03:50:00;99039.09;;;11.55;100.00
8398;BME280;4236;54.504;9.588;2022-09-27T03:52:29;99034.78;;;11.54;100.00
8398;BME280;4236;54.504;9.588;2022-09-27T03:54:56;99032.13;;;11.54;100.00
8398;BME280;4236;54.504;9.588;2022-09-27T03:57:27;99025.97;;;11.53;100.00
8398;BME280;4236;54.504;9.588;2022-09-27T03:59:56;99028.63;;;11.53;100.00
8398;BME280;4236;54.504;9.588;2022-09-27T04:02:25;99032.94;;;11.54;100.00
8398;BME280;4236;54.504;9.588;2022-09-27T04:04:53;99028.91;;;11.52;100.00
8398;BME280;4236;54.504;9.588;2022-09-27T04:07:20;99022.75;;;11.51;100.00
8398;BME280;4236;54.504;9.588;2022-09-27T04:09:50;99023.78;;;11.50;100.00
8398;BME280;4236;54.504;9.588;2022-09-27T04:12:17;99026.72;;;11.49;100.00
8398;BME280;4236;54.504;9.588;2022-09-27T04:14:45;99024.28;;;11.47;100.00
8398;BME280;4236;54.504;9.588;2022-09-27T04:17:13;99028.78;;;11.47;100.00
8398;BME280;4236;54.504;9.588;2022-09-27T04:19:40;99028.50;;;11.43;100.00
8398;BME280;4236;54.504;9.588;2022-09-27T04:22:08;99029.31;;;11.44;100.00
8398;BME280;4236;54.504;9.588;2022-09-27T04:24:36;99025.84;;;11.43;100.00
8398;BME280;4236;54.504;9.588;2022-09-27T04:27:05;99034.06;;;11.42;100.00
8398;BME280;4236;54.504;9.588;2022-09-27T04:29:33;99030.28;;;11.38;100.00
8398;BME280;4236;54.504;9.588;2022-09-27T04:32:00;99024.63;;;11.34;100.00
8398;BME280;4236;54.504;9.588;2022-09-27T04:34:28;99027.50;;;11.33;100.00
8398;BME280;4236;54.504;9.588;2022-09-27T04:37:13;99032.53;;;11.29;100.00
8398;BME280;4236;54.504;9.588;2022-09-27T04:39:41;99025.91;;;11.32;100.00
8398;BME280;4236;54.504;9.588;2022-09-27T04:42:10;99030.19;;;11.33;100.00
8398;BME280;4236;54.504;9.588;2022-09-27T04:44:37;99027.03;;;11.36;100.00
8398;BME280;4236;54.504;9.588;2022-09-27T04:47:05;99030.78;;;11.35;100.00
8398;BME280;4236;54.504;9.588;2022-09-27T04:49:38;99028.88;;;11.35;100.00
8398;BME280;4236;54.504;9.588;2022-09-27T04:52:05;99026.00;;;11.37;100.00
8398;BME280;4236;54.504;9.588;2022-09-27T04:54:33;99032.63;;;11.34;100.00
8398;BME280;4236;54.504;9.588;2022-09-27T04:57:01;99028.75;;;11.25;100.00
8398;BME280;4236;54.504;9.588;2022-09-27T04:59:29;99029.94;;;11.18;100.00
8398;BME280;4236;54.504;9.588;2022-09-27T05:01:57;99022.09;;;11.11;100.00
8398;BME280;4236;54.504;9.588;2022-09-27T05:04:26;99030.91;;;11.11;100.00
8398;BME280;4236;54.504;9.588;2022-09-27T05:06:54;99034.53;;;11.05;100.00
8398;BME280;4236;54.504;9.588;2022-09-27T05:09:22;99043.19;;;10.96;100.00
8398;BME280;4236;54.504;9.588;2022-09-27T05:11:50;99037.19;;;10.89;100.00
8398;BME280;4236;54.504;9.588;2022-09-27T05:14:18;99036.19;;;10.78;100.00
8398;BME280;4236;54.504;9.588;2022-09-27T05:16:47;99040.31;;;10.69;100.00
8398;BME280;4236;54.504;9.588;2022-09-27T05:19:15;99045.28;;;10.66;100.00
8398;BME280;4236;54.504;9.588;2022-09-27T05:21:42;99047.28;;;10.59;100.00
8398;BME280;4236;54.504;9.588;2022-09-27T05:24:10;99053.91;;;10.56;100.00
8398;BME280;4236;54.504;9.588;2022-09-27T05:26:37;99049.38;;;10.57;100.00
8398;BME280;4236;54.504;9.588;2022-09-27T05:29:05;99041.84;;;10.53;100.00
8398;BME280;4236;54.504;9.588;2022-09-27T05:31:33;99044.28;;;10.55;100.00
8398;BME280;4236;54.504;9.588;2022-09-27T05:34:02;99049.84;;;10.53;100.00
8398;BME280;4236;54.504;9.588;2022-09-27T05:36:29;99045.81;;;10.51;100.00
8398;BME280;4236;54.504;9.588;2022-09-27T05:38:57;99052.41;;;10.48;100.00
8398;BME280;4236;54.504;9.588;2022-09-27T05:41:25;99041.75;;;10.48;100.00
8398;BME280;4236;54.504;9.588;2022-09-27T05:43:53;99043.63;;;10.48;100.00
8398;BME280;4236;54.504;9.588;2022-09-27T05:46:21;99051.28;;;10.44;100.00
8398;BME280;4236;54.504;9.588;2022-09-27T05:48:48;99048.59;;;10.44;100.00
8398;BME280;4236;54.504;9.588;2022-09-27T05:51:17;99049.47;;;10.33;100.00
8398;BME280;4236;54.504;9.588;2022-09-27T05:53:46;99049.47;;;10.33;100.00
8398;BME280;4236;54.504;9.588;2022-09-27T05:56:14;99044.91;;;10.34;100.00
8398;BME280;4236;54.504;9.588;2022-09-27T05:58:42;99045.63;;;10.29;100.00
8398;BME280;4236;54.504;9.588;2022-09-27T06:01:10;99045.63;;;10.29;100.00
8398;BME280;4236;54.504;9.588;2022-09-27T06:03:37;99048.88;;;10.31;100.00
8398;BME280;4236;54.504;9.588;2022-09-27T06:06:06;99046.94;;;10.27;100.00
8398;BME280;4236;54.504;9.588;2022-09-27T06:08:37;99047.75;;;10.27;100.00
8398;BME280;4236;54.504;9.588;2022-09-27T06:11:07;99046.94;;;10.27;100.00
8398;BME280;4236;54.504;9.588;2022-09-27T06:13:35;99048.78;;;10.26;100.00
8398;BME280;4236;54.504;9.588;2022-09-27T06:16:03;99052.59;;;10.19;100.00
8398;BME280;4236;54.504;9.588;2022-09-27T06:18:31;99049.59;;;10.27;100.00
8398;BME280;4236;54.504;9.588;2022-09-27T06:20:59;99056.75;;;10.26;100.00
8398;BME280;4236;54.504;9.588;2022-09-27T06:23:28;99058.41;;;10.27;100.00
8398;BME280;4236;54.504;9.588;2022-09-27T06:26:01;99056.50;;;10.28;100.00
8398;BME280;4236;54.504;9.588;2022-09-27T06:28:30;99048.66;;;10.33;100.00
8398;BME280;4236;54.504;9.588;2022-09-27T06:30:58;99060.81;;;10.29;100.00
8398;BME280;4236;54.504;9.588;2022-09-27T06:33:27;99057.69;;;10.32;100.00
8398;BME280;4236;54.504;9.588;2022-09-27T06:35:54;99060.47;;;10.25;100.00
8398;BME280;4236;54.504;9.588;2022-09-27T06:38:22;99062.09;;;10.26;100.00
8398;BME280;4236;54.504;9.588;2022-09-27T06:40:51;99067.16;;;10.28;100.00
8398;BME280;4236;54.504;9.588;2022-09-27T06:43:20;99060.81;;;10.29;100.00
8398;BME280;4236;54.504;9.588;2022-09-27T06:45:48;99065.31;;;10.28;100.00
8398;BME280;4236;54.504;9.588;2022-09-27T06:48:16;99071.25;;;10.30;100.00
8398;BME280;4236;54.504;9.588;2022-09-27T06:50:45;99069.72;;;10.34;100.00
8398;BME280;4236;54.504;9.588;2022-09-27T06:53:14;99070.44;;;10.30;100.00
8398;BME280;4236;54.504;9.588;2022-09-27T06:55:42;99066.69;;;10.31;100.00
8398;BME280;4236;54.504;9.588;2022-09-27T06:58:11;99078.28;;;10.36;100.00
8398;BME280;4236;54.504;9.588;2022-09-27T07:00:57;99081.06;;;10.41;100.00
8398;BME280;4236;54.504;9.588;2022-09-27T07:03:25;99078.06;;;10.38;100.00
8398;BME280;4236;54.504;9.588;2022-09-27T07:06:03;99084.41;;;10.37;100.00
8398;BME280;4236;54.504;9.588;2022-09-27T07:08:31;99085.31;;;10.42;100.00
8398;BME280;4236;54.504;9.588;2022-09-27T07:11:03;99086.94;;;10.43;100.00
8398;BME280;4236;54.504;9.588;2022-09-27T07:13:31;99092.97;;;10.50;100.00
8398;BME280;4236;54.504;9.588;2022-09-27T07:16:01;99089.94;;;10.59;100.00
8398;BME280;4236;54.504;9.588;2022-09-27T07:18:29;99091.91;;;10.63;100.00
8398;BME280;4236;54.504;9.588;2022-09-27T07:20:58;99094.31;;;10.65;100.00
8398;BME280;4236;54.504;9.588;2022-09-27T07:23:26;99095.00;;;10.72;100.00
8398;BME280;4236;54.504;9.588;2022-09-27T07:25:54;99090.94;;;10.69;100.00
8398;BME280;4236;54.504;9.588;2022-09-27T07:28:22;99097.75;;;10.77;100.00
8398;BME280;4236;54.504;9.588;2022-09-27T07:30:53;99104.00;;;10.82;100.00
8398;BME280;4236;54.504;9.588;2022-09-27T07:33:23;99095.91;;;10.77;100.00
8398;BME280;4236;54.504;9.588;2022-09-27T07:35:50;99104.13;;;10.76;100.00
8398;BME280;4236;54.504;9.588;2022-09-27T07:38:18;99096.72;;;10.78;100.00
8398;BME280;4236;54.504;9.588;2022-09-27T07:40:46;99107.25;;;10.73;100.00
8398;BME280;4236;54.504;9.588;2022-09-27T07:43:13;99106.31;;;10.79;100.00
8398;BME280;4236;54.504;9.588;2022-09-27T07:45:41;99104.72;;;10.78;100.00
8398;BME280;4236;54.504;9.588;2022-09-27T07:48:12;99108.97;;;10.79;100.00
8398;BME280;4236;54.504;9.588;2022-09-27T07:50:41;99105.97;;;10.75;100.00
8398;BME280;4236;54.504;9.588;2022-09-27T07:53:09;99107.94;;;10.80;100.00
8398;BME280;4236;54.504;9.588;2022-09-27T07:55:38;99109.31;;;10.82;100.00
8398;BME280;4236;54.504;9.588;2022-09-27T07:58:09;99113.38;;;10.85;100.00
8398;BME280;4236;54.504;9.588;2022-09-27T08:00:37;99108.75;;;10.80;100.00
8398;BME280;4236;54.504;9.588;2022-09-27T08:03:07;99112.31;;;10.86;100.00
8398;BME280;4236;54.504;9.588;2022-09-27T08:05:35;99112.88;;;10.88;100.00
8398;BME280;4236;54.504;9.588;2022-09-27T08:08:04;99110.22;;;10.88;100.00
8398;BME280;4236;54.504;9.588;2022-09-27T08:10:32;99119.59;;;10.90;100.00
8398;BME280;4236;54.504;9.588;2022-09-27T08:13:01;99116.16;;;10.90;100.00
8398;BME280;4236;54.504;9.588;2022-09-27T08:15:30;99117.28;;;10.94;100.00
8398;BME280;4236;54.504;9.588;2022-09-27T08:17:58;99114.53;;;10.89;100.00
8398;BME280;4236;54.504;9.588;2022-09-27T08:20:25;99120.06;;;10.87;100.00
8398;BME280;4236;54.504;9.588;2022-09-27T08:22:53;99120.88;;;10.88;100.00
8398;BME280;4236;54.504;9.588;2022-09-27T08:25:22;99120.31;;;10.86;100.00
8398;BME280;4236;54.504;9.588;2022-09-27T08:27:54;99126.69;;;10.85;100.00
8398;BME280;4236;54.504;9.588;2022-09-27T08:30:22;99126.56;;;10.91;100.00
8398;BME280;4236;54.504;9.588;2022-09-27T08:32:54;99140.00;;;10.96;100.00
8398;BME280;4236;54.504;9.588;2022-09-27T08:35:21;99135.25;;;10.98;100.00
8398;BME280;4236;54.504;9.588;2022-09-27T08:37:54;99128.06;;;10.99;100.00
8398;BME280;4236;54.504;9.588;2022-09-27T08:40:26;99130.47;;;11.00;100.00
8398;BME280;4236;54.504;9.588;2022-09-27T08:43:02;99135.00;;;11.00;100.00
8398;BME280;4236;54.504;9.588;2022-09-27T08:45:37;99137.28;;;11.08;100.00
8398;BME280;4236;54.504;9.588;2022-09-27T08:48:08;99143.28;;;11.15;100.00
8398;BME280;4236;54.504;9.588;2022-09-27T08:50:40;99134.88;;;11.23;100.00
8398;BME280;4236;54.504;9.588;2022-09-27T08:53:17;99139.25;;;11.29;100.00
8398;BME280;4236;54.504;9.588;2022-09-27T08:55:48;99145.06;;;11.38;100.00
8398;BME280;4236;54.504;9.588;2022-09-27T08:58:20;99147.94;;;11.36;100.00
8398;BME280;4236;54.504;9.588;2022-09-27T09:00:52;99146.84;;;11.49;100.00
8398;BME280;4236;54.504;9.588;2022-09-27T09:03:23;99143.56;;;11.47;100.00
8398;BME280;4236;54.504;9.588;2022-09-27T09:06:04;99143.91;;;11.50;100.00
8398;BME280;4236;54.504;9.588;2022-09-27T09:08:40;99150.47;;;11.59;100.00
8398;BME280;4236;54.504;9.588;2022-09-27T09:11:30;99150.97;;;11.56;100.00
8398;BME280;4236;54.504;9.588;2022-09-27T09:14:35;99150.09;;;11.68;100.00
8398;BME280;4236;54.504;9.588;2022-09-27T09:17:15;99157.72;;;11.76;100.00
8398;BME280;4236;54.504;9.588;2022-09-27T09:19:59;99153.94;;;11.88;100.00
8398;BME280;4236;54.504;9.588;2022-09-27T09:22:41;99152.53;;;12.02;100.00
8398;BME280;4236;54.504;9.588;2022-09-27T09:25:21;99158.06;;;12.12;100.00
8398;BME280;4236;54.504;9.588;2022-09-27T09:28:01;99160.53;;;12.19;100.00
8398;BME280;4236;54.504;9.588;2022-09-27T09:30:34;99162.38;;;12.35;100.00
8398;BME280;4236;54.504;9.588;2022-09-27T09:33:15;99163.19;;;12.57;100.00
8398;BME280;4236;54.504;9.588;2022-09-27T09:35:49;99160.94;;;12.66;100.00
8398;BME280;4236;54.504;9.588;2022-09-27T09:38:22;99150.66;;;12.80;100.00
8398;BME280;4236;54.504;9.588;2022-09-27T09:40:56;99157.81;;;12.96;100.00
8398;BME280;4236;54.504;9.588;2022-09-27T09:43:31;99163.16;;;12.74;100.00
8398;BME280;4236;54.504;9.588;2022-09-27T09:46:04;99162.41;;;13.00;100.00
8398;BME280;4236;54.504;9.588;2022-09-27T09:48:39;99172.31;;;13.21;100.00
8398;BME280;4236;54.504;9.588;2022-09-27T09:51:14;99168.97;;;13.36;100.00
8398;BME280;4236;54.504;9.588;2022-09-27T09:53:48;99165.78;;;13.39;100.00
8398;BME280;4236;54.504;9.588;2022-09-27T09:56:22;99162.56;;;13.37;100.00
8398;BME280;4236;54.504;9.588;2022-09-27T09:58:54;99166.16;;;13.48;100.00
8398;BME280;4236;54.504;9.588;2022-09-27T10:01:26;99176.31;;;13.46;100.00
8398;BME280;4236;54.504;9.588;2022-09-27T10:03:55;99167.00;;;13.53;100.00
8398;BME280;4236;54.504;9.588;2022-09-27T10:06:24;99168.72;;;13.64;100.00
8398;BME280;4236;54.504;9.588;2022-09-27T10:08:53;99168.16;;;13.62;100.00
8398;BME280;4236;54.504;9.588;2022-09-27T10:11:24;99176.00;;;13.42;100.00
8398;BME280;4236;54.504;9.588;2022-09-27T10:13:53;99176.69;;;13.32;100.00
8398;BME280;4236;54.504;9.588;2022-09-27T10:16:22;99176.78;;;13.38;100.00
8398;BME280;4236;54.504;9.588;2022-09-27T10:18:56;99174.88;;;13.11;100.00
8398;BME280;4236;54.504;9.588;2022-09-27T10:21:28;99172.50;;;13.15;100.00
8398;BME280;4236;54.504;9.588;2022-09-27T10:24:06;99177.16;;;13.03;100.00
8398;BME280;4236;54.504;9.588;2022-09-27T10:26:43;99175.38;;;13.08;100.00
8398;BME280;4236;54.504;9.588;2022-09-27T10:29:21;99168.25;;;12.97;100.00
8398;BME280;4236;54.504;9.588;2022-09-27T10:31:50;99171.63;;;13.09;100.00
8398;BME280;4236;54.504;9.588;2022-09-27T10:34:27;99177.63;;;13.16;100.00
8398;BME280;4236;54.504;9.588;2022-09-27T10:37:09;99178.97;;;13.19;100.00
8398;BME280;4236;54.504;9.588;2022-09-27T10:39:43;99178.13;;;13.40;100.00
8398;BME280;4236;54.504;9.588;2022-09-27T10:42:29;99173.63;;;13.19;100.00
8398;BME280;4236;54.504;9.588;2022-09-27T10:45:19;99182.97;;;13.16;100.00
8398;BME280;4236;54.504;9.588;2022-09-27T10:47:49;99192.56;;;13.12;100.00
8398;BME280;4236;54.504;9.588;2022-09-27T10:50:20;99177.72;;;13.05;100.00
8398;BME280;4236;54.504;9.588;2022-09-27T10:53:12;99176.03;;;12.99;100.00
8398;BME280;4236;54.504;9.588;2022-09-27T10:55:42;99187.31;;;13.01;100.00
8398;BME280;4236;54.504;9.588;2022-09-27T10:58:17;99181.09;;;12.95;100.00
8398;BME280;4236;54.504;9.588;2022-09-27T11:00:55;99178.91;;;12.92;100.00
8398;BME280;4236;54.504;9.588;2022-09-27T11:03:23;99181.03;;;13.12;100.00
8398;BME280;4236;54.504;9.588;2022-09-27T11:05:54;99181.34;;;13.15;100.00
8398;BME280;4236;54.504;9.588;2022-09-27T11:08:27;99176.31;;;13.19;100.00
8398;BME280;4236;54.504;9.588;2022-09-27T11:11:13;99183.69;;;13.12;100.00
8398;BME280;4236;54.504;9.588;2022-09-27T11:13:56;99192.47;;;13.07;100.00
8398;BME280;4236;54.504;9.588;2022-09-27T11:16:39;99183.97;;;13.10;100.00
8398;BME280;4236;54.504;9.588;2022-09-27T11:19:18;99186.25;;;13.23;100.00
8398;BME280;4236;54.504;9.588;2022-09-27T11:21:51;99189.41;;;13.20;100.00
8398;BME280;4236;54.504;9.588;2022-09-27T11:24:33;99189.69;;;13.19;100.00
8398;BME280;4236;54.504;9.588;2022-09-27T11:27:15;99192.88;;;13.43;100.00
8398;BME280;4236;54.504;9.588;2022-09-27T11:29:57;99190.72;;;13.40;100.00
8398;BME280;4236;54.504;9.588;2022-09-27T11:32:38;99195.09;;;13.51;100.00
8398;BME280;4236;54.504;9.588;2022-09-27T11:35:24;99193.38;;;13.66;100.00
8398;BME280;4236;54.504;9.588;2022-09-27T11:38:06;99193.38;;;13.66;100.00
8398;BME280;4236;54.504;9.588;2022-09-27T11:40:51;99193.66;;;13.65;100.00
8398;BME280;4236;54.504;9.588;2022-09-27T11:43:35;99204.97;;;13.77;100.00
8398;BME280;4236;54.504;9.588;2022-09-27T11:46:13;99207.22;;;13.85;100.00
8398;BME280;4236;54.504;9.588;2022-09-27T11:49:25;99201.25;;;13.78;100.00
8398;BME280;4236;54.504;9.588;2022-09-27T11:52:07;99212.16;;;13.71;100.00
8398;BME280;4236;54.504;9.588;2022-09-27T11:54:52;99212.69;;;13.68;100.00
8398;BME280;4236;54.504;9.588;2022-09-27T11:57:26;99204.97;;;13.77;100.00
8398;BME280;4236;54.504;9.588;2022-09-27T12:00:03;99209.19;;;13.95;100.00
8398;BME280;4236;54.504;9.588;2022-09-27T12:03:00;99195.38;;;14.13;100.00
8398;BME280;4236;54.504;9.588;2022-09-27T12:05:35;99213.84;;;14.09;100.00
8398;BME280;4236;54.504;9.588;2022-09-27T12:08:17;99209.91;;;14.22;100.00
8398;BME280;4236;54.504;9.588;2022-09-27T12:10:53;99204.69;;;14.37;100.00
8398;BME280;4236;54.504;9.588;2022-09-27T12:13:30;99202.28;;;14.35;100.00
8398;BME280;4236;54.504;9.588;2022-09-27T12:16:00;99201.72;;;14.02;100.00
8398;BME280;4236;54.504;9.588;2022-09-27T12:18:31;99204.63;;;13.95;100.00
8398;BME280;4236;54.504;9.588;2022-09-27T12:21:05;99205.94;;;13.93;100.00
8398;BME280;4236;54.504;9.588;2022-09-27T12:23:38;99214.44;;;13.84;100.00
8398;BME280;4236;54.504;9.588;2022-09-27T12:26:11;99211.72;;;13.79;100.00
8398;BME280;4236;54.504;9.588;2022-09-27T12:28:44;99214.69;;;13.83;100.00
8398;BME280;4236;54.504;9.588;2022-09-27T12:31:17;99212.09;;;13.61;100.00
8398;BME280;4236;54.504;9.588;2022-09-27T12:34:02;99219.84;;;13.63;100.00
8398;BME280;4236;54.504;9.588;2022-09-27T12:36:38;99219.00;;;13.57;100.00
8398;BME280;4236;54.504;9.588;2022-09-27T12:39:17;99221.28;;;13.44;100.00
8398;BME280;4236;54.504;9.588;2022-09-27T12:41:50;99219.31;;;13.61;100.00
8398;BME280;4236;54.504;9.588;2022-09-27T12:44:21;99216.72;;;13.71;100.00
8398;BME280;4236;54.504;9.588;2022-09-27T12:46:58;99224.03;;;13.80;100.00
8398;BME280;4236;54.504;9.588;2022-09-27T12:49:41;99222.66;;;14.05;100.00
8398;BME280;4236;54.504;9.588;2022-09-27T12:52:15;99223.47;;;14.05;100.00
8398;BME280;4236;54.504;9.588;2022-09-27T12:57:48;99210.66;;;14.12;100.00
8398;BME280;4236;54.504;9.588;2022-09-27T13:00:19;99219.22;;;14.09;100.00
8398;BME280;4236;54.504;9.588;2022-09-27T13:03:21;99220.06;;;14.15;100.00
8398;BME280;4236;54.504;9.588;2022-09-27T13:06:17;99218.34;;;14.04;100.00
8398;BME280;4236;54.504;9.588;2022-09-27T13:08:59;99215.00;;;13.86;100.00
8398;BME280;4236;54.504;9.588;2022-09-27T13:11:41;99220.72;;;13.68;100.00
8398;BME280;4236;54.504;9.588;2022-09-27T13:14:18;99226.91;;;13.47;100.00
8398;BME280;4236;54.504;9.588;2022-09-27T13:16:47;99226.88;;;13.42;100.00
8398;BME280;4236;54.504;9.588;2022-09-27T13:19:40;99223.06;;;13.38;100.00
8398;BME280;4236;54.504;9.588;2022-09-27T13:22:39;99232.59;;;13.29;100.00
8398;BME280;4236;54.504;9.588;2022-09-27T13:25:02;99237.72;;;13.30;100.00
8398;BME280;4236;54.504;9.588;2022-09-27T13:27:41;99232.56;;;13.24;100.00
8398;BME280;4236;54.504;9.588;2022-09-27T13:33:43;99240.22;;;13.15;100.00
8398;BME280;4236;54.504;9.588;2022-09-27T13:36:29;99237.31;;;13.17;100.00
8398;BME280;4236;54.504;9.588;2022-09-27T13:39:15;99240.22;;;13.15;100.00
8398;BME280;4236;54.504;9.588;2022-09-27T13:42:03;99242.22;;;13.25;100.00
8398;BME280;4236;54.504;9.588;2022-09-27T13:44:41;99247.53;;;13.20;100.00
8398;BME280;4236;54.504;9.588;2022-09-27T13:47:22;99241.84;;;13.16;100.00